Bourg, Louisiana
Current Conditions -  °F | °C
As of 11:47 AM on Thursday 27 Nov 2014 (Local Time) from KHUM Reporting Station
Clear Clear  
Wind Chill: 61°   Ceiling: Unl
Heat Index: 61°   Visibility: 7mi
Dew Point: 30°   Wind: 12mph
Humidity: 31%   Direction: 10°N
Pressure: 30.41"   Gusts: NA
Location:  29.55°N, 90.6°W
Report Text: KHUM 271747Z 01010KT 7SM SKC 16/M01 A3041 RMK RY12/30 CLOSED ATIS E VA RY36 MS
Loading
Personal Weather Stations






























Interactive Weather Map New forecast layout! Learn more

10-Day Weather Forecast

Advertisements
Track Severe Weather on mobile